Time;durP1;ratioP1;P1;durP2;ratioP2;P2;SDS_P1;SDS_P2;PMS_P1;PMS_P2;Temp;Humidity;BMP_temperature;BMP_pressure;BME280_temperature;BME280_humidity;BME280_pressure;Samples;Min_cycle;Max_cycle;Signal;HPM_P1;HPM_P2
2020/12/20 00:00:19;;;;;;;20.27;9.68;;;11.50;99.90;;;11.50;82.72;101238.28;5073629;28;20447;-84
2020/12/20 00:02:51;;;;;;;16.80;9.93;;;11.50;99.90;;;11.71;82.68;101267.41;5073739;28;20045;-82
2020/12/20 00:05:21;;;;;;;17.42;9.23;;;11.50;99.90;;;11.70;82.59;101264.78;5073644;28;20046;-83
2020/12/20 00:07:49;;;;;;;17.58;9.82;;;11.50;99.90;;;11.61;83.04;101265.63;5073638;28;20049;-83
2020/12/20 00:10:17;;;;;;;18.48;9.65;;;11.40;99.90;;;11.60;82.87;101242.69;5073296;28;20068;-83
2020/12/20 00:12:45;;;;;;;18.42;10.00;;;11.40;99.90;;;11.43;83.26;101239.22;5073281;28;20033;-84
2020/12/20 00:15:13;;;;;;;17.45;9.05;;;11.40;99.90;;;11.63;83.12;101265.66;5073240;28;20044;-82
2020/12/20 00:17:46;;;;;;;17.55;9.35;;;11.40;99.90;;;11.59;83.17;101251.50;5073156;28;20115;-83
2020/12/20 00:20:14;;;;;;;20.95;10.25;;;11.40;99.90;;;11.55;83.30;101255.09;5073424;28;20041;-81
2020/12/20 00:22:42;;;;;;;17.13;10.35;;;11.40;99.90;;;11.58;83.31;101254.16;5073099;28;20052;-83
2020/12/20 00:25:09;;;;;;;21.52;10.38;;;11.40;99.90;;;11.61;83.31;101268.28;5073306;28;20440;-82
2020/12/20 00:27:37;;;;;;;17.95;9.88;;;11.40;99.90;;;11.64;83.27;101264.75;5073012;28;20098;-83
2020/12/20 00:30:07;;;;;;;16.75;9.40;;;11.40;99.90;;;11.60;83.37;101266.53;5073038;28;20429;-80
2020/12/20 00:32:34;;;;;;;18.33;9.50;;;11.40;99.90;;;11.56;83.29;101264.78;5073190;28;20106;-82
2020/12/20 00:35:02;;;;;;;16.45;9.73;;;11.40;99.90;;;11.42;83.85;101247.16;5073091;28;20048;-82
2020/12/20 00:37:31;;;;;;;16.27;9.60;;;11.40;99.90;;;11.27;83.99;101231.28;5072738;28;20044;-82
2020/12/20 00:39:59;;;;;;;16.08;9.57;;;11.30;99.90;;;11.49;84.09;101281.59;5072269;28;20053;-83
2020/12/20 00:42:26;;;;;;;19.85;10.93;;;11.40;99.90;;;11.41;84.10;101279.81;5072907;28;20047;-83
2020/12/20 00:44:53;;;;;;;20.60;11.10;;;11.40;99.90;;;11.42;84.66;101292.19;5072933;28;20442;-84
2020/12/20 00:47:21;;;;;;;16.40;9.95;;;11.30;99.90;;;11.24;85.07;101257.78;5072780;28;20118;-82
2020/12/20 00:49:49;;;;;;;17.58;11.32;;;11.20;99.90;;;11.25;85.72;101278.06;5072859;28;20079;-83
2020/12/20 00:52:16;;;;;;;21.35;10.95;;;11.10;99.90;;;11.29;85.66;101291.31;5072431;28;20070;-82
2020/12/20 00:54:45;;;;;;;21.85;11.00;;;11.10;99.90;;;11.29;85.68;101280.72;5071444;28;20397;-84
2020/12/20 00:57:13;;;;;;;16.85;9.55;;;11.20;99.90;;;11.41;85.58;101283.34;5071383;28;20044;-84
2020/12/20 00:59:41;;;;;;;17.50;9.85;;;11.20;99.90;;;11.33;85.65;101289.53;5071432;28;20080;-80
2020/12/20 01:02:08;;;;;;;22.95;10.55;;;11.20;99.90;;;11.32;85.89;101291.31;5071290;28;20051;-82
2020/12/20 01:04:36;;;;;;;22.85;11.50;;;11.10;99.90;;;11.33;85.86;101293.06;5072674;28;20140;-80
2020/12/20 01:07:03;;;;;;;16.80;10.40;;;11.10;99.90;;;11.33;85.82;101289.53;5071312;28;20047;-82
2020/12/20 01:09:36;;;;;;;18.90;10.15;;;11.20;99.90;;;11.37;85.65;101299.25;5071371;28;20135;-80
2020/12/20 01:12:05;;;;;;;20.20;10.70;;;11.20;99.90;;;11.41;85.48;101299.25;5071157;28;20056;-82
2020/12/20 01:14:52;;;;;;;17.90;10.57;;;11.20;99.90;;;11.39;85.63;101301.00;5072151;28;20045;-82
2020/12/20 01:17:20;;;;;;;20.73;10.63;;;11.20;99.90;;;11.04;85.67;101246.28;5071207;28;20414;-83
2020/12/20 01:19:49;;;;;;;20.15;11.25;;;11.20;99.90;;;11.35;85.55;101283.34;5072181;28;20048;-82
2020/12/20 01:22:19;;;;;;;21.90;10.48;;;11.20;99.90;;;11.35;85.66;101282.47;5071243;28;20464;-82
2020/12/20 01:24:47;;;;;;;18.70;10.00;;;11.20;99.90;;;11.27;85.50;101257.75;5071293;28;20056;-79
2020/12/20 01:27:18;;;;;;;23.83;10.48;;;11.30;99.90;;;11.40;85.55;101289.53;5071293;28;20836;-81
2020/12/20 01:29:46;;;;;;;23.90;11.10;;;11.20;99.90;;;11.44;85.55;101282.47;5070757;28;20052;-82
2020/12/20 01:32:16;;;;;;;22.13;10.20;;;11.20;99.90;;;11.45;85.40;101270.97;5071086;28;20056;-82
2020/12/20 01:34:46;;;;;;;20.73;9.80;;;11.20;99.90;;;11.31;84.88;101255.09;5070759;28;20493;-82
2020/12/20 01:37:14;;;;;;;24.52;10.32;;;11.30;99.90;;;11.37;85.00;101278.94;5071099;28;20167;-81
2020/12/20 01:39:48;;;;;;;24.05;10.15;;;11.20;99.90;;;11.26;85.01;101233.06;5071047;28;20402;-83
2020/12/20 01:42:18;;;;;;;23.42;10.20;;;11.20;99.90;;;11.46;85.01;101281.56;5070543;28;20044;-83
2020/12/20 01:44:48;;;;;;;21.50;9.75;;;11.20;99.90;;;11.27;84.70;101269.22;5070857;28;20193;-83
2020/12/20 01:47:17;;;;;;;22.55;8.38;;;11.20;99.90;;;11.43;84.70;101276.28;5070821;28;20044;-82
2020/12/20 01:50:00;;;;;;;21.30;9.55;;;11.20;99.90;;;11.35;84.69;101280.72;5070917;28;20063;-83
2020/12/20 01:52:29;;;;;;;19.40;9.60;;;11.20;99.90;;;11.45;84.40;101294.81;5073614;28;20056;-82
2020/12/20 01:55:00;;;;;;;22.23;9.45;;;11.20;99.90;;;11.37;84.42;101305.44;5075015;28;20433;-84
2020/12/20 01:57:34;;;;;;;26.02;10.18;;;11.20;99.90;;;11.47;84.45;101293.06;5074944;28;20094;-82
2020/12/20 02:00:25;;;;;;;28.05;9.93;;;11.20;99.90;;;11.53;83.89;101299.25;5070138;28;20048;-80
2020/12/20 02:03:12;;;;;;;18.45;9.27;;;11.30;99.90;;;11.43;84.06;101301.88;5075574;28;20435;-83
2020/12/20 02:05:42;;;;;;;23.80;9.95;;;11.30;99.90;;;11.52;83.88;101289.50;5074679;28;20052;-79
2020/12/20 02:08:10;;;;;;;24.27;9.52;;;11.30;99.90;;;11.50;83.66;101280.69;5074595;28;20571;-83
2020/12/20 02:10:39;;;;;;;25.33;9.77;;;11.30;99.90;;;11.50;83.55;101296.56;5074521;28;20072;-83
2020/12/20 02:13:07;;;;;;;19.98;8.95;;;11.30;99.90;;;11.51;83.57;101286.88;5075905;28;20048;-82
2020/12/20 02:15:40;;;;;;;24.50;8.93;;;11.30;99.90;;;11.32;83.34;101254.25;5074254;28;20141;-83
2020/12/20 02:18:07;;;;;;;27.60;9.98;;;11.30;99.90;;;11.52;83.15;101273.63;5074489;28;20060;-82
2020/12/20 02:20:41;;;;;;;23.38;9.60;;;11.40;99.90;;;11.50;83.16;101283.34;5074398;28;20052;-81
2020/12/20 02:23:13;;;;;;;17.83;9.30;;;11.40;99.90;;;11.57;83.14;101298.34;5074355;28;20498;-82
2020/12/20 02:25:51;;;;;;;27.50;10.55;;;11.40;99.90;;;11.53;83.31;101290.41;5074387;28;20124;-82
2020/12/20 02:28:30;;;;;;;23.27;9.13;;;11.30;99.90;;;11.56;83.26;101283.31;5074153;28;20045;-83
2020/12/20 02:31:20;;;;;;;24.08;9.80;;;11.30;99.90;;;11.56;83.25;101291.28;5074827;28;20135;-82
2020/12/20 02:33:48;;;;;;;24.70;8.93;;;11.30;99.90;;;11.52;83.32;101292.16;5108081;28;20052;-82
2020/12/20 02:36:15;;;;;;;27.73;9.88;;;11.30;99.90;;;11.49;83.23;101297.47;5073842;28;20079;-83
2020/12/20 02:38:45;;;;;;;19.52;9.73;;;11.30;99.90;;;11.58;83.25;101302.75;5074191;28;20406;-83
2020/12/20 02:41:33;;;;;;;25.38;10.02;;;11.30;99.90;;;11.52;83.07;101278.91;5075016;28;20039;-81
2020/12/20 02:44:03;;;;;;;26.80;9.98;;;11.40;99.90;;;11.56;82.98;101285.97;5073650;28;20055;-80
2020/12/20 02:46:32;;;;;;;24.63;9.93;;;11.40;99.90;;;11.59;82.77;101285.94;5073776;28;20131;-83
2020/12/20 02:49:05;;;;;;;27.63;10.55;;;11.40;99.90;;;11.60;82.76;101278.91;5073979;28;20344;-82
2020/12/20 02:51:38;;;;;;;25.20;9.95;;;11.40;99.90;;;11.64;82.72;101283.31;5075176;28;20056;-83
2020/12/20 02:54:07;;;;;;;28.02;10.65;;;11.40;99.90;;;11.69;82.54;101290.38;5073879;28;20047;-82
2020/12/20 02:56:44;;;;;;;29.08;10.75;;;11.40;99.90;;;11.71;82.38;101291.28;5073803;28;20048;-82
2020/12/20 02:59:19;;;;;;;23.08;10.13;;;11.50;99.90;;;11.70;82.28;101296.56;5107763;28;20053;-82
2020/12/20 03:01:47;;;;;;;25.83;9.05;;;11.50;99.90;;;11.76;82.07;101286.84;5073784;28;20049;-83
2020/12/20 03:04:15;;;;;;;29.83;11.07;;;11.50;99.90;;;11.71;82.11;101283.31;5074696;28;20099;-82
2020/12/20 03:06:43;;;;;;;26.67;9.88;;;11.50;99.90;;;11.66;82.24;101279.81;5073568;28;20048;-82
2020/12/20 03:09:11;;;;;;;30.58;10.52;;;11.50;99.90;;;11.66;82.42;101287.75;5073735;28;20087;-82
2020/12/20 03:11:39;;;;;;;28.40;10.38;;;11.40;99.90;;;11.68;82.37;101296.59;5073205;28;20059;-81
2020/12/20 03:14:08;;;;;;;21.55;9.75;;;11.40;99.90;;;11.67;82.35;101289.50;5073500;28;20047;-83
2020/12/20 03:16:40;;;;;;;31.58;10.98;;;11.40;99.90;;;11.67;82.28;101292.16;5073571;28;20054;-80
2020/12/20 03:19:08;;;;;;;23.63;10.82;;;11.40;99.90;;;11.67;82.13;101301.91;5073339;28;20044;-82
2020/12/20 03:21:36;;;;;;;23.88;9.48;;;11.40;99.90;;;11.65;82.06;101290.38;5073070;28;20045;-82
2020/12/20 03:24:24;;;;;;;27.80;11.20;;;11.40;99.90;;;11.67;81.89;101294.81;5052802;28;20512;-82
2020/12/20 03:27:14;;;;;;;;;;;11.40;99.90;;;11.69;82.17;101292.19;5074621;28;20045;-82
2020/12/20 03:30:01;;;;;;;24.13;9.95;;;11.50;99.90;;;11.63;81.79;101298.31;5074669;28;20007;-82
2020/12/20 03:33:06;;;;;;;19.98;10.52;;;11.40;99.90;;;11.43;81.95;101276.28;5077642;28;20045;-81
2020/12/20 03:36:12;;;;;;;28.55;10.23;;;11.40;99.90;;;11.68;81.70;101291.28;5068598;28;20056;-82
2020/12/20 03:38:40;;;;;;;24.73;10.13;;;11.50;99.90;;;11.64;81.60;101285.94;5072649;28;20049;-83
2020/12/20 03:41:08;;;;;;;24.42;9.13;;;11.40;99.90;;;11.60;81.84;101298.34;5072771;28;20508;-82
2020/12/20 03:43:38;;;;;;;26.50;9.73;;;11.40;99.90;;;11.55;82.12;101293.94;5073095;28;20119;-82
2020/12/20 03:46:06;;;;;;;27.77;9.68;;;11.40;99.90;;;11.60;81.98;101295.69;5072909;28;20425;-81
2020/12/20 03:48:40;;;;;;;25.15;9.25;;;11.40;99.90;;;11.54;81.97;101311.59;5072797;28;20041;-82
2020/12/20 03:51:15;;;;;;;25.45;9.63;;;11.40;99.90;;;11.58;82.27;101299.22;5072891;28;20494;-82
2020/12/20 03:53:51;;;;;;;19.92;8.35;;;11.40;99.90;;;11.65;82.18;101300.97;5072726;28;20075;-82
2020/12/20 03:56:20;;;;;;;24.02;9.13;;;11.40;99.90;;;11.63;81.82;101311.56;5072774;28;20106;-82
2020/12/20 03:58:55;;;;;;;29.23;8.95;;;11.40;99.90;;;11.69;81.77;101301.00;5072589;28;20047;-82
2020/12/20 04:01:23;;;;;;;25.88;9.18;;;11.40;99.90;;;11.71;81.89;101323.06;5073709;28;20098;-82
2020/12/20 04:03:51;;;;;;;32.75;9.85;;;11.40;99.90;;;11.79;81.62;101317.75;5072397;28;20052;-82
2020/12/20 04:06:20;;;;;;;21.17;8.75;;;11.50;99.90;;;11.85;81.62;101317.75;5072442;28;20056;-82
2020/12/20 04:08:48;;;;;;;27.98;9.15;;;11.60;99.90;;;11.80;81.37;101319.53;5073678;28;20075;-82
2020/12/20 04:11:35;;;;;;;23.15;8.90;;;11.60;99.90;;;11.85;81.20;101316.84;5073915;28;20145;-83
2020/12/20 04:14:02;;;;;;;19.30;8.50;;;11.60;99.90;;;11.87;80.95;101325.69;5071644;28;20136;-83
2020/12/20 04:16:34;;;;;;;21.73;8.70;;;11.60;99.90;;;11.88;80.89;101315.09;5072247;28;20406;-80
2020/12/20 04:19:02;;;;;;;19.92;9.00;;;11.60;99.90;;;11.81;80.93;101312.47;5072379;28;20051;-82
2020/12/20 04:21:34;;;;;;;20.45;9.18;;;11.60;99.90;;;11.83;80.79;101316.00;5072050;28;20440;-82
2020/12/20 04:24:09;;;;;;;22.40;8.57;;;11.60;99.90;;;11.75;80.87;101310.69;5072312;28;20139;-82
2020/12/20 04:26:37;;;;;;;20.60;8.88;;;11.50;99.90;;;11.75;80.74;101313.34;5073360;28;20512;-82
2020/12/20 04:29:16;;;;;;;29.92;9.85;;;11.50;99.90;;;11.68;80.95;101319.53;5071801;28;20134;-82
2020/12/20 04:31:48;;;;;;;24.33;8.80;;;11.50;99.90;;;11.66;81.09;101322.22;5071974;28;20102;-83
2020/12/20 04:34:19;;;;;;;;;;;11.40;99.90;;;11.48;80.95;101284.22;5072038;28;20056;-83
2020/12/20 04:36:47;;;;;;;23.67;9.32;;;11.40;99.90;;;11.64;80.99;101307.16;5105522;28;19924;-82
2020/12/20 04:39:53;;;;;;;24.27;8.88;;;11.40;99.90;;;11.52;80.87;101301.88;5065850;28;20052;-83
2020/12/20 04:42:27;;;;;;;23.55;8.90;;;11.40;99.90;;;11.34;81.06;101297.47;5071708;28;20087;-81
2020/12/20 04:44:58;;;;;;;30.30;9.07;;;11.30;99.90;;;11.35;81.58;101304.53;5071397;28;20059;-81
2020/12/20 04:47:31;;;;;;;21.60;9.15;;;11.20;99.90;;;11.37;81.73;101305.44;5071858;28;20052;-82
2020/12/20 04:50:00;;;;;;;17.00;8.02;;;11.20;99.90;;;11.26;81.80;101288.66;5071861;28;20410;-83
2020/12/20 04:52:32;;;;;;;22.55;8.57;;;11.20;99.90;;;11.25;82.31;101307.19;5071615;28;20448;-82
2020/12/20 04:55:03;;;;;;;28.92;8.80;;;11.10;99.90;;;11.23;82.35;101303.66;5071445;28;20139;-80
2020/12/20 04:57:55;;;;;;;24.00;8.27;;;11.10;99.90;;;11.24;82.48;101306.31;5072587;28;20048;-82
2020/12/20 05:00:26;;;;;;;18.20;7.60;;;11.10;99.90;;;11.32;82.20;101308.97;5071442;28;20079;-83
2020/12/20 05:02:53;;;;;;;22.98;8.98;;;11.10;99.90;;;11.25;81.83;101278.94;5071280;28;20129;-82
2020/12/20 05:05:20;;;;;;;24.38;8.50;;;11.20;99.90;;;11.34;81.97;101297.47;5071274;28;20048;-82
2020/12/20 05:07:52;;;;;;;28.95;9.68;;;11.20;99.90;;;11.35;81.90;101296.59;5071310;28;20052;-82
2020/12/20 05:10:38;;;;;;;19.70;8.82;;;11.20;99.90;;;11.36;81.96;101310.72;5071265;28;20041;-82
2020/12/20 05:13:08;;;;;;;22.42;8.90;;;11.20;99.90;;;11.41;81.73;101314.25;5071280;28;20052;-82
2020/12/20 05:15:36;;;;;;;22.55;8.35;;;11.20;99.90;;;11.43;81.80;101308.06;5071115;28;20040;-83
2020/12/20 05:18:26;;;;;;;20.35;8.52;;;11.20;99.90;;;11.42;81.59;101310.72;5071998;28;20048;-82
2020/12/20 05:21:02;;;;;;;24.08;8.55;;;11.20;99.90;;;11.42;81.57;101313.38;5071096;28;20049;-80
2020/12/20 05:23:31;;;;;;;20.85;8.57;;;11.20;99.90;;;11.45;81.43;101314.25;5071033;28;20060;-81
2020/12/20 05:26:16;;;;;;;29.88;9.00;;;11.20;99.90;;;11.47;81.28;101320.44;5071230;28;20048;-83
2020/12/20 05:28:45;;;;;;;24.00;8.07;;;11.20;99.90;;;11.16;81.10;101273.66;5072066;28;20049;-81
2020/12/20 05:31:13;;;;;;;19.77;8.90;;;11.20;99.90;;;11.21;81.44;101282.47;5071034;28;20052;-81
2020/12/20 05:33:50;;;;;;;19.63;8.90;;;11.20;99.90;;;11.36;81.63;101323.97;5070917;28;20167;-82
2020/12/20 05:36:27;;;;;;;22.05;8.75;;;11.20;99.90;;;11.37;81.93;101312.47;5071044;28;20048;-82
2020/12/20 05:39:14;;;;;;;20.08;8.45;;;11.20;99.90;;;11.33;81.80;101306.31;5071007;28;20114;-82
2020/12/20 05:41:44;;;;;;;17.30;8.13;;;11.20;99.90;;;11.38;81.94;101306.31;5070604;28;20533;-80
2020/12/20 05:44:21;;;;;;;21.40;7.95;;;11.10;99.90;;;11.38;81.96;101319.56;5070950;28;20052;-81
2020/12/20 05:46:53;;;;;;;24.63;8.68;;;11.20;99.90;;;11.22;82.08;101297.50;5070867;28;20053;-81
2020/12/20 05:49:24;;;;;;;21.10;8.88;;;11.20;99.90;;;11.28;82.07;101292.19;5070609;28;20087;-81
2020/12/20 05:52:07;;;;;;;20.08;8.30;;;11.20;99.90;;;11.23;82.12;101298.34;5072240;28;20462;-82
2020/12/20 05:54:38;;;;;;;18.75;8.40;;;11.10;99.90;;;11.37;81.83;101315.13;5072154;28;20045;-81
2020/12/20 05:57:13;;;;;;;23.95;8.93;;;11.20;99.90;;;11.36;81.97;101318.69;5070865;28;20051;-82
2020/12/20 05:59:44;;;;;;;19.17;8.77;;;11.10;99.90;;;11.17;81.89;101287.78;5072124;28;20041;-83
2020/12/20 06:02:12;;;;;;;26.15;8.63;;;11.20;99.90;;;11.32;82.16;101315.16;5070669;28;20045;-83
2020/12/20 06:04:41;;;;;;;19.77;8.65;;;11.10;99.90;;;11.20;82.26;101304.56;5071953;28;20052;-83
2020/12/20 06:07:09;;;;;;;22.70;8.50;;;11.10;99.90;;;11.30;82.42;101322.22;5071756;28;20063;-82
2020/12/20 06:09:53;;;;;;;20.05;9.25;;;11.10;99.90;;;11.27;82.83;101331.91;5071730;28;20063;-82
2020/12/20 06:12:26;;;;;;;27.08;9.52;;;11.00;99.90;;;11.28;82.46;101317.78;5070521;28;20101;-81
2020/12/20 06:14:56;;;;;;;27.92;9.15;;;11.10;99.90;;;11.20;82.33;101309.84;5071880;28;20041;-80
2020/12/20 06:17:24;;;;;;;22.60;8.50;;;11.10;99.90;;;11.18;82.58;101335.44;5071943;28;20052;-81
2020/12/20 06:19:58;;;;;;;23.45;8.60;;;11.10;99.90;;;10.83;82.98;101289.53;5070603;28;20393;-82
2020/12/20 06:22:28;;;;;;;22.23;9.00;;;11.00;99.90;;;11.20;82.84;101335.44;5071770;28;20464;-82
2020/12/20 06:24:58;;;;;;;22.92;8.77;;;11.00;99.90;;;8.78;82.24;100941.16;5071874;28;20056;-82
2020/12/20 06:27:28;;;;;;;27.30;8.17;;;11.00;99.90;;;11.07;82.73;101334.53;5071762;28;20072;-83
2020/12/20 06:29:58;;;;;;;24.30;8.50;;;11.00;99.90;;;11.21;82.69;101342.47;5071585;28;20306;-82
2020/12/20 06:32:34;;;;;;;20.05;8.27;;;11.00;99.90;;;11.24;82.69;101347.81;5071792;28;20032;-82
2020/12/20 06:35:12;;;;;;;23.73;9.15;;;11.00;99.90;;;10.85;82.27;101279.81;5071718;28;20055;-82
2020/12/20 06:37:43;;;;;;;24.88;9.18;;;11.00;99.90;;;11.28;82.33;101346.91;5072692;28;20067;-82
2020/12/20 06:40:12;;;;;;;17.80;8.13;;;11.10;99.90;;;11.16;82.05;101326.63;5075331;28;20053;-82
2020/12/20 06:42:42;;;;;;;19.92;8.55;;;11.10;99.90;;;10.82;82.15;101272.75;5074958;28;20481;-81
2020/12/20 06:45:18;;;;;;;25.10;8.82;;;11.00;99.90;;;11.26;81.95;101352.22;5075053;28;20041;-82
2020/12/20 06:47:48;;;;;;;23.63;8.20;;;11.10;99.90;;;11.24;82.18;101359.28;5074003;28;20052;-81
2020/12/20 06:50:46;;;;;;;19.45;7.82;;;11.10;99.90;;;11.12;82.04;101324.84;5074830;28;20395;-82
2020/12/20 06:53:16;;;;;;;23.92;8.27;;;11.10;99.90;;;11.21;82.05;101351.31;5074865;28;20044;-82
2020/12/20 06:55:44;;;;;;;18.90;8.50;;;11.00;99.90;;;11.18;82.26;101350.44;5074871;28;20055;-80
2020/12/20 06:58:19;;;;;;;20.33;8.60;;;11.00;99.90;;;10.59;82.09;101248.03;5074972;28;20125;-81
2020/12/20 07:00:53;;;;;;;30.40;9.10;;;11.00;99.90;;;11.23;82.18;101362.78;5073719;28;20052;-83
2020/12/20 07:03:41;;;;;;;29.83;9.27;;;11.00;99.90;;;11.05;82.08;101336.31;5074868;28;20040;-82
2020/12/20 07:06:18;;;;;;;22.15;8.07;;;11.00;99.90;;;11.21;82.25;101366.31;5074950;28;20052;-81
2020/12/20 07:09:04;;;;;;;22.08;8.32;;;11.00;99.90;;;11.20;82.10;101370.75;5073645;28;20481;-81
2020/12/20 07:11:31;;;;;;;22.45;9.20;;;11.00;99.90;;;11.20;82.19;101376.03;5075079;28;20051;-82
2020/12/20 07:14:16;;;;;;;22.55;8.18;;;11.00;99.90;;;11.21;82.19;101374.25;5074725;28;20105;-83
2020/12/20 07:16:45;;;;;;;28.65;9.45;;;11.00;99.90;;;11.12;82.32;101371.59;5073396;28;20094;-82
2020/12/20 07:19:20;;;;;;;24.50;8.60;;;10.90;99.90;;;11.12;82.88;101380.44;5074575;28;20072;-82
2020/12/20 07:22:05;;;;;;;24.98;9.00;;;10.90;99.90;;;11.05;83.06;101377.78;5074290;28;20040;-82
2020/12/20 07:24:37;;;;;;;26.35;8.95;;;10.80;99.90;;;10.90;83.11;101352.16;5074329;28;20037;-81
2020/12/20 07:27:06;;;;;;;24.20;8.75;;;10.80;99.90;;;11.05;83.04;101376.03;5074262;28;20394;-82
2020/12/20 07:29:35;;;;;;;28.10;8.48;;;10.80;99.90;;;10.85;83.77;101381.28;5074224;28;20056;-81
2020/12/20 07:32:04;;;;;;;26.58;8.82;;;10.70;99.90;;;10.69;83.91;101376.81;5074096;28;20072;-82
2020/12/20 07:34:33;;;;;;;26.33;9.85;;;10.60;99.90;;;10.84;84.27;101386.53;5074009;28;20494;-82
2020/12/20 07:37:00;;;;;;;24.23;9.32;;;10.60;99.90;;;10.11;83.86;101281.38;5074285;28;20078;-82
2020/12/20 07:39:28;;;;;;;24.60;9.00;;;10.60;99.90;;;10.81;84.32;101399.78;5073947;28;20047;-82
2020/12/20 07:41:59;;;;;;;27.95;10.13;;;10.60;99.90;;;10.68;84.70;101417.34;5074270;28;20466;-82
2020/12/20 07:44:33;;;;;;;36.78;10.55;;;10.50;99.90;;;10.71;84.70;101390.94;5074235;28;20041;-82
2020/12/20 07:47:11;;;;;;;27.10;9.82;;;10.50;99.90;;;10.54;84.70;101370.59;5073959;28;20052;-82
2020/12/20 07:49:38;;;;;;;25.60;9.43;;;10.50;99.90;;;10.74;84.46;101406.81;5072770;28;20528;-82
2020/12/20 07:52:09;;;;;;;35.75;9.73;;;10.50;99.90;;;10.75;84.35;101411.22;5073991;28;20119;-83
2020/12/20 07:54:37;;;;;;;31.95;9.65;;;10.50;99.90;;;10.74;84.44;101421.81;5073979;28;20037;-82
2020/12/20 07:57:07;;;;;;;24.88;9.95;;;10.50;99.90;;;10.50;84.31;101387.31;5073811;28;20143;-84
2020/12/20 07:59:35;;;;;;;24.65;8.63;;;10.50;99.90;;;10.79;84.26;101428.00;5073948;28;20047;-83
2020/12/20 08:02:03;;;;;;;31.52;9.43;;;10.60;99.90;;;10.74;84.54;101432.41;5073706;28;20139;-81
2020/12/20 08:04:31;;;;;;;32.78;9.65;;;10.50;99.90;;;10.56;84.71;101421.72;5073460;28;20106;-83
2020/12/20 08:06:58;;;;;;;28.38;10.00;;;10.50;99.90;;;10.71;84.92;101427.06;5073688;28;20086;-82
2020/12/20 08:09:27;;;;;;;34.47;10.07;;;10.50;99.90;;;10.70;84.69;101427.97;5073649;28;20045;-83
2020/12/20 08:11:56;;;;;;;31.65;9.48;;;10.50;99.90;;;10.75;84.64;101436.78;5073318;28;20154;-82
2020/12/20 08:14:24;;;;;;;29.13;10.15;;;10.50;99.90;;;10.77;84.87;101442.97;5073540;28;20113;-82
2020/12/20 08:16:54;;;;;;;26.75;9.68;;;10.50;99.90;;;10.75;84.56;101431.50;5073460;28;20127;-80
2020/12/20 08:19:25;;;;;;;31.70;9.60;;;10.60;99.90;;;10.69;84.77;101434.13;5073054;28;20083;-84
2020/12/20 08:22:01;;;;;;;23.58;9.57;;;10.60;99.90;;;10.75;84.69;101444.72;5072960;28;20046;-83
2020/12/20 08:24:31;;;;;;;30.25;9.10;;;10.50;99.90;;;10.46;84.67;101402.28;5073402;28;20040;-82
2020/12/20 08:27:12;;;;;;;23.65;8.18;;;10.60;99.90;;;10.84;84.15;101440.34;5072120;28;20045;-82
2020/12/20 08:29:41;;;;;;;26.50;10.27;;;10.60;99.90;;;10.82;84.09;101443.88;5072597;28;20460;-82
2020/12/20 08:32:13;;;;;;;27.77;8.70;;;10.60;99.90;;;10.80;84.28;101430.63;5073089;28;20048;-82
2020/12/20 08:34:41;;;;;;;25.95;8.70;;;10.60;99.90;;;10.73;84.11;101423.56;5073177;28;20044;-83
2020/12/20 08:37:11;;;;;;;27.27;9.40;;;10.60;99.90;;;10.55;84.67;101391.75;5072765;28;20474;-82
2020/12/20 08:39:39;;;;;;;31.58;9.27;;;10.60;99.90;;;10.75;84.52;101431.50;5073158;28;20075;-83
2020/12/20 08:42:09;;;;;;;28.52;9.68;;;10.60;99.90;;;10.76;84.53;101425.34;5071276;28;20374;-83
2020/12/20 08:44:37;;;;;;;33.28;10.10;;;10.60;99.90;;;10.72;84.53;101435.00;5072815;28;20413;-82
2020/12/20 08:47:11;;;;;;;24.88;9.10;;;10.60;99.90;;;10.81;84.86;101443.00;5072835;28;20086;-78
2020/12/20 08:49:40;;;;;;;30.08;10.20;;;10.50;99.90;;;10.73;84.95;101444.72;5073100;28;20645;-81
2020/12/20 08:52:13;;;;;;;25.58;10.07;;;10.50;99.90;;;10.78;85.09;101440.34;5072425;28;20087;-80
2020/12/20 08:54:48;;;;;;;26.60;9.35;;;10.50;99.90;;;9.59;84.61;101237.97;5072619;28;20135;-80
2020/12/20 08:57:16;;;;;;;31.42;9.60;;;10.60;99.90;;;10.18;84.44;101347.50;5072367;28;20437;-76
2020/12/20 08:59:45;;;;;;;27.65;8.63;;;10.60;99.90;;;10.89;84.64;101443.94;5072530;28;20064;-82
2020/12/20 09:02:19;;;;;;;27.67;9.52;;;10.60;99.90;;;10.85;84.55;101438.59;5071909;28;20044;-80
2020/12/20 09:04:59;;;;;;;27.35;9.18;;;10.70;99.90;;;10.99;84.53;101450.13;5072599;28;20045;-73
2020/12/20 09:07:37;;;;;;;30.60;9.90;;;10.70;99.90;;;11.02;84.37;101452.78;5072389;28;20048;-75
2020/12/20 09:10:09;;;;;;;28.40;8.55;;;10.80;99.90;;;10.74;84.18;101414.75;5072211;28;20413;-77
2020/12/20 09:12:37;;;;;;;31.33;9.30;;;10.80;99.90;;;11.05;84.01;101458.09;5072210;28;20052;-77
2020/12/20 09:15:10;;;;;;;30.20;8.68;;;10.80;99.90;;;11.05;84.00;101454.56;5072032;28;20115;-79
2020/12/20 09:17:40;;;;;;;26.20;9.40;;;10.90;99.90;;;9.28;83.74;101139.25;5072136;28;20044;-77
2020/12/20 09:20:11;;;;;;;27.63;9.80;;;10.90;99.90;;;11.18;83.71;101462.53;5072403;28;20098;-84
2020/12/20 09:22:49;;;;;;;27.80;9.30;;;11.00;99.90;;;11.14;83.57;101451.91;5072114;28;20768;-77
2020/12/20 09:25:29;;;;;;;30.05;10.20;;;11.00;99.90;;;10.98;83.48;101443.06;5072118;28;20060;-75
2020/12/20 09:28:00;;;;;;;27.65;9.85;;;10.90;99.90;;;11.16;83.39;101459.00;5072271;28;20473;-71
2020/12/20 09:30:44;;;;;;;30.77;10.00;;;10.90;99.90;;;10.97;83.47;101437.75;5072055;28;20584;-75
2020/12/20 09:33:22;;;;;;;28.05;9.90;;;11.00;99.90;;;9.04;82.92;101099.50;5072102;28;20090;-72
2020/12/20 09:36:00;;;;;;;27.33;9.63;;;11.00;99.90;;;11.15;83.36;101477.53;5072213;28;20049;-72
2020/12/20 09:38:37;;;;;;;29.23;9.40;;;11.00;99.90;;;11.09;83.31;101466.94;5072181;28;20041;-75
2020/12/20 09:41:06;;;;;;;20.25;9.60;;;11.00;99.90;;;10.11;82.99;101292.84;5072143;28;20408;-71
2020/12/20 09:43:34;;;;;;;26.45;9.85;;;11.00;99.90;;;10.69;83.00;101383.84;5071777;28;20068;-73
2020/12/20 09:46:03;;;;;;;31.08;10.30;;;11.10;99.90;;;11.24;82.53;101459.91;5071392;28;20037;-73
2020/12/20 09:48:31;;;;;;;29.50;10.45;;;11.20;99.90;;;11.44;81.96;101484.66;5070600;28;20867;-73
2020/12/20 09:50:59;;;;;;;22.92;9.13;;;11.30;99.90;;;11.36;81.81;101453.75;5071889;28;20071;-73
2020/12/20 09:53:30;;;;;;;26.50;10.15;;;11.30;99.90;;;11.61;81.57;101490.84;5071674;28;20041;-73
2020/12/20 09:55:57;;;;;;;25.23;10.25;;;11.40;99.90;;;11.60;81.21;101465.25;5071842;28;20045;-73
2020/12/20 09:58:27;;;;;;;25.75;9.50;;;11.50;99.90;;;11.91;80.68;101486.50;5071665;28;20055;-74
2020/12/20 10:00:54;;;;;;;26.77;9.97;;;11.60;99.90;;;12.03;79.63;101470.59;5072214;28;20056;-73
2020/12/20 10:03:24;;;;;;;26.10;9.88;;;11.80;99.90;;;12.03;79.41;101473.25;5071728;28;20052;-73
2020/12/20 10:05:51;;;;;;;26.15;10.23;;;11.80;99.90;;;11.99;79.12;101476.78;5071595;28;20106;-73
2020/12/20 10:08:19;;;;;;;24.17;9.73;;;11.80;99.90;;;12.06;79.01;101470.59;5072181;28;20072;-73
2020/12/20 10:10:52;;;;;;;24.60;9.40;;;11.80;99.90;;;12.16;78.69;101472.34;5071824;28;20056;-75
2020/12/20 10:13:20;;;;;;;25.83;9.35;;;11.90;99.90;;;12.31;78.47;101488.25;5073389;28;20048;-78
2020/12/20 10:15:47;;;;;;;28.95;10.70;;;12.00;99.90;;;12.43;78.08;101482.91;5074369;28;20071;-77
2020/12/20 10:18:15;;;;;;;21.23;9.63;;;12.20;99.90;;;12.39;77.13;101421.00;5075488;28;20045;-83
2020/12/20 10:20:43;;;;;;;28.48;10.75;;;12.40;99.90;;;12.85;76.42;101480.16;5074388;28;20551;-79
2020/12/20 10:23:11;;;;;;;24.98;9.40;;;12.60;99.90;;;13.01;75.60;101484.47;5075126;28;20486;-83
2020/12/20 10:25:40;;;;;;;25.63;9.32;;;12.80;99.90;;;13.33;74.87;101487.00;5075488;28;20044;-82